Time;durP1;ratioP1;P1;durP2;ratioP2;P2;SDS_P1;SDS_P2;PMS_P1;PMS_P2;Temp;Humidity;BMP_temperature;BMP_pressure;BME280_temperature;BME280_humidity;BME280_pressure;Samples;Min_cycle;Max_cycle;Signal;HPM_P1;HPM_P2
2020/12/20 00:00:42;;;;;;;3.90;1.77;;;22.80;49.60;;;;;;5094583;28;20032;-61
2020/12/20 00:03:08;;;;;;;4.63;1.45;;;22.70;49.50;;;;;;5091318;28;20156;-61
2020/12/20 00:05:34;;;;;;;4.25;1.60;;;22.70;49.60;;;;;;5093661;28;20039;-60
2020/12/20 00:08:00;;;;;;;3.97;1.50;;;22.70;49.60;;;;;;5089079;28;20473;-60
2020/12/20 00:10:25;;;;;;;3.60;1.30;;;22.70;49.60;;;;;;5090606;28;20081;-60
2020/12/20 00:12:51;;;;;;;4.32;1.50;;;22.60;49.50;;;;;;5066793;28;20042;-60
2020/12/20 00:15:18;;;;;;;2.47;1.20;;;22.60;49.60;;;;;;5089650;28;20032;-60
2020/12/20 00:17:50;;;;;;;3.60;1.48;;;22.60;49.60;;;;;;5085918;28;20032;-60
2020/12/20 00:20:17;;;;;;;3.33;1.25;;;22.50;49.50;;;;;;5076340;28;20020;-59
2020/12/20 00:22:44;;;;;;;5.75;1.40;;;22.60;49.60;;;;;;5089236;28;20115;-60
2020/12/20 00:25:09;;;;;;;4.40;1.40;;;22.50;49.60;;;;;;5081154;28;20115;-60
2020/12/20 00:27:35;;;;;;;2.63;1.40;;;22.50;49.60;;;;;;5086847;28;20111;-60
2020/12/20 00:30:01;;;;;;;4.38;1.42;;;22.50;49.60;;;;;;5069537;28;20056;-60
2020/12/20 00:32:27;;;;;;;3.72;1.40;;;22.40;49.60;;;;;;5073506;28;20070;-60
2020/12/20 00:34:52;;;;;;;3.25;1.38;;;22.40;49.50;;;;;;5078611;28;20108;-61
2020/12/20 00:37:18;;;;;;;3.42;1.27;;;22.40;49.60;;;;;;5044928;28;20111;-60
2020/12/20 00:39:44;;;;;;;4.10;1.40;;;22.30;49.50;;;;;;5056024;28;20059;-60
2020/12/20 00:42:09;;;;;;;3.00;1.42;;;22.30;49.60;;;;;;5067161;28;20471;-61
2020/12/20 00:44:35;;;;;;;3.47;1.45;;;22.30;49.60;;;;;;5059806;28;20039;-61
2020/12/20 00:47:03;;;;;;;2.75;1.23;;;22.30;49.60;;;;;;5064519;28;20036;-60
2020/12/20 00:49:30;;;;;;;3.53;1.50;;;22.30;49.60;;;;;;5064834;28;20370;-59
2020/12/20 00:52:03;;;;;;;4.15;1.40;;;22.30;49.60;;;;;;5065681;28;20126;-60
2020/12/20 00:54:28;;;;;;;2.70;1.20;;;22.20;49.60;;;;;;5066018;28;20051;-61
2020/12/20 00:56:54;;;;;;;3.15;1.30;;;22.20;49.60;;;;;;5051431;28;20042;-60
2020/12/20 00:59:20;;;;;;;2.65;1.45;;;22.20;49.60;;;;;;5065870;28;20035;-61
2020/12/20 01:01:46;;;;;;;2.45;1.15;;;22.20;49.60;;;;;;5067821;28;20051;-61
2020/12/20 01:04:12;;;;;;;2.13;1.20;;;22.10;49.50;;;;;;5066186;28;20037;-60
2020/12/20 01:06:38;;;;;;;2.63;1.50;;;22.10;49.60;;;;;;5056832;28;20431;-61
2020/12/20 01:09:05;;;;;;;2.28;1.13;;;22.10;49.60;;;;;;5050169;28;20115;-61
2020/12/20 01:11:32;;;;;;;2.92;1.30;;;22.10;49.60;;;;;;5065753;28;20055;-61
2020/12/20 01:13:58;;;;;;;2.95;1.50;;;22.00;49.60;;;;;;5047517;28;20103;-60
2020/12/20 01:16:26;;;;;;;3.10;1.13;;;22.00;49.60;;;;;;5066989;28;20124;-61
2020/12/20 01:18:53;;;;;;;3.53;1.30;;;22.00;49.60;;;;;;5061449;28;20035;-61
2020/12/20 01:21:18;;;;;;;3.03;1.30;;;22.00;49.60;;;;;;5064414;28;20099;-60
2020/12/20 01:23:44;;;;;;;2.22;1.17;;;22.00;49.60;;;;;;5044459;28;20123;-60
2020/12/20 01:26:10;;;;;;;2.97;1.25;;;21.90;49.60;;;;;;5064403;28;20025;-61
2020/12/20 01:28:37;;;;;;;3.28;1.58;;;21.90;49.60;;;;;;5071416;28;20032;-60
2020/12/20 01:31:07;;;;;;;2.78;1.40;;;21.90;49.60;;;;;;5078521;28;20178;-60
2020/12/20 01:33:35;;;;;;;2.35;1.30;;;21.90;49.60;;;;;;5079908;28;20386;-60
2020/12/20 01:36:11;;;;;;;3.10;1.55;;;21.90;49.60;;;;;;5085500;28;20580;-59
2020/12/20 01:38:38;;;;;;;2.47;1.38;;;21.80;49.60;;;;;;5084961;28;20063;-61
2020/12/20 01:41:05;;;;;;;2.80;1.40;;;21.90;49.70;;;;;;5085704;28;20043;-60
2020/12/20 01:43:47;;;;;;;2.35;1.10;;;21.80;49.60;;;;;;5085986;28;20488;-60
2020/12/20 01:46:17;;;;;;;2.42;1.38;;;21.80;49.70;;;;;;5066557;28;20031;-61
2020/12/20 01:48:48;;;;;;;3.00;1.13;;;21.80;49.70;;;;;;5067973;28;20047;-60
2020/12/20 01:51:13;;;;;;;3.28;1.23;;;21.70;49.70;;;;;;5084990;28;20028;-60
2020/12/20 01:53:40;;;;;;;4.05;1.20;;;21.70;49.70;;;;;;5086040;28;20036;-60
2020/12/20 01:56:06;;;;;;;1.38;1.08;;;21.70;49.70;;;;;;5067403;28;20024;-61
2020/12/20 01:58:36;;;;;;;2.35;1.10;;;21.70;49.70;;;;;;5086117;28;20056;-59
2020/12/20 02:01:04;;;;;;;3.58;1.15;;;21.60;49.70;;;;;;5079166;28;20491;-61
2020/12/20 02:03:30;;;;;;;2.35;1.10;;;21.70;49.80;;;;;;5085635;28;21068;-60
2020/12/20 02:05:55;;;;;;;3.28;1.40;;;21.60;49.80;;;;;;5084415;28;20016;-60
2020/12/20 02:08:21;;;;;;;3.67;1.13;;;21.60;49.70;;;;;;5085649;28;20021;-59
2020/12/20 02:11:08;;;;;;;1.92;1.20;;;21.60;49.80;;;;;;5086594;28;20047;-59
2020/12/20 02:13:34;;;;;;;2.80;1.20;;;21.60;49.80;;;;;;5065649;28;20044;-60
2020/12/20 02:16:02;;;;;;;2.35;1.30;;;21.60;49.80;;;;;;5085145;28;20039;-60
2020/12/20 02:18:27;;;;;;;2.10;1.10;;;21.60;50.30;;;;;;5086512;28;20393;-60
2020/12/20 02:20:53;;;;;;;2.25;1.17;;;21.50;49.80;;;;;;5085404;28;20024;-59
2020/12/20 02:23:20;;;;;;;2.50;1.10;;;21.50;49.80;;;;;;5082039;28;20032;-60
2020/12/20 02:25:46;;;;;;;1.77;1.10;;;21.50;49.80;;;;;;5083800;28;20032;-60
2020/12/20 02:28:11;;;;;;;2.13;1.30;;;21.50;49.80;;;;;;5085224;28;20032;-60
2020/12/20 02:30:37;;;;;;;2.10;1.10;;;21.40;49.80;;;;;;5092840;28;20024;-61
2020/12/20 02:33:02;;;;;;;1.67;1.20;;;21.40;49.90;;;;;;5087414;28;20545;-59
2020/12/20 02:35:28;;;;;;;2.22;1.13;;;21.40;49.80;;;;;;5088697;28;20032;-59
2020/12/20 02:37:54;;;;;;;2.40;1.20;;;21.40;49.80;;;;;;5089409;28;20036;-60
2020/12/20 02:40:19;;;;;;;1.90;0.98;;;21.40;49.90;;;;;;5088972;28;20046;-59
2020/12/20 02:42:45;;;;;;;1.92;1.00;;;21.40;49.90;;;;;;5089841;28;20039;-60
2020/12/20 02:45:10;;;;;;;1.85;1.10;;;21.40;49.90;;;;;;5088601;28;20020;-60
2020/12/20 02:47:36;;;;;;;1.70;1.10;;;21.40;49.90;;;;;;5085875;28;20100;-60
2020/12/20 02:50:02;;;;;;;2.85;1.10;;;21.30;49.90;;;;;;5088577;28;20089;-60
2020/12/20 02:52:27;;;;;;;2.33;1.15;;;21.30;49.90;;;;;;5086669;28;20447;-60
2020/12/20 02:54:53;;;;;;;2.08;1.10;;;21.30;49.90;;;;;;5088959;28;20034;-60
2020/12/20 02:57:18;;;;;;;2.53;1.10;;;21.30;50.00;;;;;;5089633;28;20436;-59
2020/12/20 02:59:44;;;;;;;1.48;1.10;;;21.30;49.90;;;;;;5087841;28;20032;-60
2020/12/20 03:02:10;;;;;;;1.42;0.98;;;21.30;50.00;;;;;;5088342;28;20103;-60
2020/12/20 03:04:35;;;;;;;1.90;1.10;;;21.30;50.00;;;;;;5089093;28;20024;-61
2020/12/20 03:07:01;;;;;;;1.27;0.93;;;21.20;50.00;;;;;;5089180;28;20202;-59
2020/12/20 03:09:26;;;;;;;2.10;1.10;;;21.20;50.00;;;;;;5088411;28;20016;-59
2020/12/20 03:11:52;;;;;;;1.50;0.98;;;21.20;50.10;;;;;;5088465;28;20024;-61
2020/12/20 03:14:17;;;;;;;1.35;1.00;;;21.20;50.10;;;;;;5089768;28;20491;-59
2020/12/20 03:16:43;;;;;;;1.45;1.13;;;21.20;50.10;;;;;;5085448;28;20027;-60
2020/12/20 03:19:08;;;;;;;1.85;1.10;;;21.10;50.00;;;;;;5088741;28;20036;-61
2020/12/20 03:21:34;;;;;;;1.75;1.00;;;21.10;50.10;;;;;;5088297;28;20139;-59
2020/12/20 03:24:01;;;;;;;1.70;1.00;;;21.10;50.10;;;;;;5087084;28;20039;-60
2020/12/20 03:26:27;;;;;;;1.83;1.10;;;21.10;50.10;;;;;;5085375;28;20076;-60
2020/12/20 03:28:53;;;;;;;1.77;1.10;;;21.10;50.10;;;;;;5088095;28;20123;-59
2020/12/20 03:31:19;;;;;;;1.27;0.90;;;21.10;50.10;;;;;;5083516;28;20241;-59
2020/12/20 03:33:45;;;;;;;1.38;0.90;;;21.10;50.10;;;;;;5088762;28;20039;-61
2020/12/20 03:36:10;;;;;;;2.05;1.10;;;21.10;50.10;;;;;;5088234;28;20358;-59
2020/12/20 03:38:36;;;;;;;1.33;0.93;;;21.10;50.10;;;;;;5081298;28;20074;-60
2020/12/20 03:41:01;;;;;;;1.50;1.00;;;21.10;50.10;;;;;;5087744;28;20138;-59
2020/12/20 03:43:27;;;;;;;1.52;1.10;;;21.00;50.10;;;;;;5085658;28;20443;-59
2020/12/20 03:45:53;;;;;;;2.35;1.20;;;21.10;50.20;;;;;;5086670;28;20584;-59
2020/12/20 03:48:18;;;;;;;1.77;0.93;;;21.00;50.10;;;;;;5086637;28;20028;-58
2020/12/20 03:50:44;;;;;;;2.67;1.10;;;21.00;50.10;;;;;;5088510;28;20024;-60
2020/12/20 03:53:09;;;;;;;2.00;1.17;;;21.00;50.10;;;;;;5070340;28;20115;-60
2020/12/20 03:55:35;;;;;;;1.65;1.08;;;21.00;50.10;;;;;;5087096;28;20067;-61
2020/12/20 03:58:00;;;;;;;1.63;1.00;;;21.00;50.10;;;;;;5088711;28;20047;-60
2020/12/20 04:00:26;;;;;;;1.40;1.00;;;21.00;50.10;;;;;;5088972;28;20024;-60
2020/12/20 04:02:52;;;;;;;1.65;1.00;;;21.00;50.10;;;;;;5087116;28;20469;-59
2020/12/20 04:05:17;;;;;;;1.20;0.90;;;21.00;50.10;;;;;;5086532;28;20039;-60
2020/12/20 04:07:43;;;;;;;1.58;1.10;;;21.00;50.10;;;;;;5083135;28;20031;-59
2020/12/20 04:10:09;;;;;;;1.80;1.00;;;21.00;50.10;;;;;;5088276;28;20024;-61
2020/12/20 04:12:35;;;;;;;1.15;0.90;;;20.90;50.10;;;;;;5083859;28;20735;-60
2020/12/20 04:15:00;;;;;;;1.75;1.00;;;21.00;50.10;;;;;;5085885;28;20128;-60
2020/12/20 04:17:26;;;;;;;1.30;0.98;;;21.00;50.10;;;;;;5087278;28;20050;-60
2020/12/20 04:19:52;;;;;;;1.30;1.08;;;20.90;50.10;;;;;;5088045;28;20520;-60
2020/12/20 04:22:17;;;;;;;1.17;0.90;;;20.90;50.10;;;;;;5085944;28;20024;-59
2020/12/20 04:24:43;;;;;;;1.73;1.10;;;20.90;50.60;;;;;;5084013;28;20067;-60
2020/12/20 04:27:08;;;;;;;1.85;1.00;;;20.90;50.10;;;;;;5086769;28;20028;-60
2020/12/20 04:29:34;;;;;;;1.67;0.90;;;20.90;50.10;;;;;;5087242;28;20032;-60
2020/12/20 04:32:02;;;;;;;1.27;0.90;;;20.90;50.20;;;;;;5085951;28;20553;-60
2020/12/20 04:34:27;;;;;;;1.40;1.00;;;20.90;50.20;;;;;;5088710;28;20381;-60
2020/12/20 04:36:53;;;;;;;1.60;1.00;;;20.90;50.10;;;;;;5087550;28;20031;-59
2020/12/20 04:39:19;;;;;;;1.17;0.90;;;20.80;50.20;;;;;;5079850;28;20060;-60
2020/12/20 04:41:44;;;;;;;1.30;0.90;;;20.90;50.20;;;;;;5087168;28;20028;-59
2020/12/20 04:44:10;;;;;;;1.63;0.90;;;20.90;50.20;;;;;;5088046;28;20063;-58
2020/12/20 04:46:37;;;;;;;1.85;1.20;;;20.80;50.20;;;;;;5086304;28;20035;-59
2020/12/20 04:49:03;;;;;;;1.40;0.90;;;20.80;50.20;;;;;;5087560;28;20032;-60
2020/12/20 04:51:29;;;;;;;0.85;0.80;;;20.80;50.20;;;;;;5088028;28;20030;-59
2020/12/20 04:53:58;;;;;;;1.00;0.73;;;20.80;50.20;;;;;;5081614;28;21036;-59
2020/12/20 04:56:24;;;;;;;1.23;0.97;;;20.80;50.20;;;;;;5086971;28;20741;-59
2020/12/20 04:58:50;;;;;;;1.42;1.00;;;20.80;50.20;;;;;;5087069;28;20059;-59
2020/12/20 05:01:15;;;;;;;1.30;0.88;;;20.80;50.20;;;;;;5081320;28;20511;-61
2020/12/20 05:03:41;;;;;;;1.33;0.90;;;20.80;50.20;;;;;;5082922;28;20032;-60
2020/12/20 05:06:07;;;;;;;1.25;0.90;;;20.80;50.30;;;;;;5086193;28;20491;-60
2020/12/20 05:08:33;;;;;;;1.52;1.00;;;20.80;50.30;;;;;;5080981;28;20076;-60
2020/12/20 05:10:59;;;;;;;1.00;0.90;;;20.80;50.30;;;;;;5086880;28;20084;-59
2020/12/20 05:13:40;;;;;;;1.00;0.85;;;20.80;50.30;;;;;;5085019;28;20382;-61
2020/12/20 05:16:06;;;;;;;1.67;1.10;;;20.80;50.30;;;;;;5084702;28;20350;-59
2020/12/20 05:18:32;;;;;;;1.25;0.90;;;20.80;50.30;;;;;;5076286;28;20024;-59
2020/12/20 05:20:57;;;;;;;1.27;0.90;;;20.70;50.20;;;;;;5089384;28;20766;-59
2020/12/20 05:23:29;;;;;;;1.10;0.80;;;20.70;50.30;;;;;;5089272;28;20115;-60
2020/12/20 05:26:05;;;;;;;0.88;0.80;;;20.70;50.30;;;;;;5077166;28;20067;-58
2020/12/20 05:28:31;;;;;;;0.73;0.73;;;20.70;50.30;;;;;;5082994;28;20048;-60
2020/12/20 05:31:09;;;;;;;1.98;0.90;;;20.70;50.30;;;;;;5080495;28;20101;-59
2020/12/20 05:33:35;;;;;;;1.23;0.95;;;20.70;50.30;;;;;;5083545;28;20032;-61
2020/12/20 05:36:05;;;;;;;0.80;0.70;;;20.70;50.30;;;;;;5081930;28;20020;-60
2020/12/20 05:38:32;;;;;;;1.40;0.90;;;20.70;50.30;;;;;;5088031;28;20020;-61
2020/12/20 05:40:58;;;;;;;0.82;0.70;;;20.70;50.30;;;;;;5082392;28;20917;-59
2020/12/20 05:43:26;;;;;;;1.27;0.90;;;20.70;50.30;;;;;;5080917;28;20039;-58
2020/12/20 05:45:52;;;;;;;0.80;0.70;;;20.70;50.30;;;;;;5075706;28;20127;-60
2020/12/20 05:48:19;;;;;;;1.67;0.75;;;20.70;50.30;;;;;;5084519;28;20355;-59
2020/12/20 05:50:53;;;;;;;0.90;0.70;;;20.70;50.40;;;;;;5082365;28;20046;-60
2020/12/20 05:53:24;;;;;;;1.00;0.80;;;20.70;50.40;;;;;;5084955;28;20470;-59
2020/12/20 05:55:50;;;;;;;1.65;1.00;;;20.70;50.40;;;;;;5083153;28;20604;-59
2020/12/20 05:58:16;;;;;;;1.75;1.00;;;20.70;50.40;;;;;;5079044;28;20031;-60
2020/12/20 06:00:43;;;;;;;0.70;0.70;;;20.60;50.30;;;;;;5080919;28;20462;-59
2020/12/20 06:03:09;;;;;;;1.38;0.90;;;20.60;50.30;;;;;;5081498;28;20358;-60
2020/12/20 06:05:37;;;;;;;0.90;0.80;;;20.60;50.30;;;;;;5064719;28;20505;-60
2020/12/20 06:08:06;;;;;;;1.27;0.80;;;20.60;50.40;;;;;;5087824;28;20144;-61
2020/12/20 06:10:35;;;;;;;1.00;0.70;;;20.60;50.40;;;;;;5085399;28;20481;-59
2020/12/20 06:13:04;;;;;;;1.15;0.80;;;20.60;50.40;;;;;;5066663;28;20028;-59
2020/12/20 06:15:33;;;;;;;1.35;1.00;;;20.60;50.40;;;;;;5089809;28;21762;-59
2020/12/20 06:18:02;;;;;;;;;;;20.60;50.40;;;;;;5088788;28;20115;-60
2020/12/20 06:20:29;;;;;;;1.38;0.80;;;20.60;50.40;;;;;;5087768;28;19912;-60
2020/12/20 06:22:55;;;;;;;0.98;0.80;;;20.60;50.40;;;;;;5089030;28;20040;-60
2020/12/20 06:25:26;;;;;;;1.20;0.88;;;20.50;50.40;;;;;;5087100;28;20020;-61
2020/12/20 06:27:52;;;;;;;1.30;0.90;;;20.60;50.40;;;;;;5085971;28;20028;-60
2020/12/20 06:30:21;;;;;;;1.50;0.80;;;20.60;50.40;;;;;;5067473;28;20789;-59
2020/12/20 06:32:54;;;;;;;1.02;0.80;;;20.60;50.40;;;;;;5085526;28;20093;-60
2020/12/20 06:35:23;;;;;;;0.77;0.75;;;20.50;50.40;;;;;;5066972;28;20040;-59
2020/12/20 06:37:49;;;;;;;;;;;20.50;50.40;;;;;;5088686;28;20076;-59
2020/12/20 06:40:29;;;;;;;0.95;0.75;;;20.50;50.40;;;;;;5086982;28;20010;-58
2020/12/20 06:42:55;;;;;;;1.10;0.73;;;20.60;50.50;;;;;;5088142;28;20653;-59
2020/12/20 06:45:21;;;;;;;1.10;0.80;;;20.50;50.40;;;;;;5085991;28;20030;-59
2020/12/20 06:47:48;;;;;;;0.70;0.70;;;20.50;50.40;;;;;;5079290;28;20036;-60
2020/12/20 06:50:14;;;;;;;0.65;0.65;;;20.50;50.50;;;;;;5086553;28;20032;-60
2020/12/20 06:52:48;;;;;;;1.08;0.90;;;20.50;50.50;;;;;;5084696;28;20363;-60
2020/12/20 06:55:14;;;;;;;0.80;0.80;;;20.50;50.50;;;;;;5087726;28;20047;-60
2020/12/20 06:58:01;;;;;;;1.35;0.70;;;20.50;50.50;;;;;;5088145;28;20075;-59
2020/12/20 07:00:55;;;;;;;0.88;0.80;;;20.50;50.50;;;;;;5086988;28;20024;-59
2020/12/20 07:03:21;;;;;;;0.82;0.80;;;20.50;50.60;;;;;;5088894;28;20028;-59
2020/12/20 07:05:48;;;;;;;1.77;0.70;;;20.50;50.50;;;;;;5087558;28;20517;-59
2020/12/20 07:08:33;;;;;;;0.70;0.70;;;20.50;50.50;;;;;;5087156;28;20024;-61
2020/12/20 07:11:06;;;;;;;0.82;0.65;;;20.40;50.50;;;;;;5088142;28;20048;-60
2020/12/20 07:13:38;;;;;;;1.00;0.80;;;20.40;50.50;;;;;;5087888;28;20166;-60
2020/12/20 07:16:15;;;;;;;1.33;0.80;;;20.50;50.60;;;;;;5084079;28;20043;-59
2020/12/20 07:19:01;;;;;;;0.75;0.60;;;20.40;50.50;;;;;;5084808;28;20541;-59
2020/12/20 07:21:29;;;;;;;0.90;0.60;;;20.40;50.50;;;;;;5070753;28;20016;-59
2020/12/20 07:24:04;;;;;;;0.93;0.77;;;20.40;50.60;;;;;;5088389;28;20039;-59
2020/12/20 07:26:31;;;;;;;1.15;0.82;;;20.40;50.50;;;;;;5079344;28;20021;-60
2020/12/20 07:29:02;;;;;;;0.70;0.70;;;20.40;50.50;;;;;;5088330;28;20861;-60
2020/12/20 07:31:28;;;;;;;1.10;0.77;;;20.40;50.60;;;;;;5067171;28;20054;-59
2020/12/20 07:33:55;;;;;;;0.75;0.70;;;20.40;50.60;;;;;;5087866;28;20027;-60
2020/12/20 07:36:22;;;;;;;0.70;0.70;;;20.40;50.60;;;;;;5091549;28;20143;-58
2020/12/20 07:38:48;;;;;;;0.73;0.68;;;20.40;50.60;;;;;;5087113;28;20460;-60
2020/12/20 07:41:16;;;;;;;1.25;0.80;;;20.40;50.60;;;;;;5087714;28;20032;-61
2020/12/20 07:43:45;;;;;;;1.15;0.70;;;20.40;50.60;;;;;;5082808;28;20074;-60
2020/12/20 07:46:13;;;;;;;0.85;0.70;;;20.40;50.60;;;;;;5082316;28;20055;-59
2020/12/20 07:48:39;;;;;;;1.02;0.85;;;20.30;50.60;;;;;;5085943;28;20063;-60
2020/12/20 07:51:17;;;;;;;0.95;0.80;;;20.40;50.60;;;;;;5086196;28;20028;-61
2020/12/20 07:53:51;;;;;;;0.85;0.70;;;20.40;50.70;;;;;;5085126;28;20035;-59
2020/12/20 07:56:28;;;;;;;0.85;0.70;;;20.40;50.70;;;;;;5082892;28;20504;-60
2020/12/20 07:58:56;;;;;;;1.20;0.80;;;20.40;50.70;;;;;;5086243;28;20074;-59
2020/12/20 08:01:22;;;;;;;0.82;0.70;;;20.40;50.70;;;;;;5081769;28;20470;-59
2020/12/20 08:03:48;;;;;;;0.70;0.70;;;20.30;50.60;;;;;;5084544;28;20447;-58
2020/12/20 08:06:15;;;;;;;0.60;0.60;;;20.30;50.60;;;;;;5077464;28;20720;-60
2020/12/20 08:08:43;;;;;;;1.02;0.80;;;20.40;50.70;;;;;;5085331;28;20081;-59
2020/12/20 08:11:26;;;;;;;0.80;0.70;;;20.40;50.70;;;;;;5079960;28;20024;-59
2020/12/20 08:14:14;;;;;;;1.00;0.70;;;20.30;50.70;;;;;;5081579;28;20115;-59
2020/12/20 08:16:42;;;;;;;0.93;0.70;;;20.30;50.70;;;;;;5077362;28;20119;-59
2020/12/20 08:19:14;;;;;;;0.70;0.70;;;20.30;50.70;;;;;;5081276;28;20032;-60
2020/12/20 08:21:56;;;;;;;0.77;0.75;;;20.30;50.70;;;;;;5085341;28;20047;-60
2020/12/20 08:24:22;;;;;;;0.90;0.70;;;20.30;50.70;;;;;;5078419;28;20032;-60
2020/12/20 08:26:48;;;;;;;0.82;0.73;;;20.30;50.70;;;;;;5071237;28;20024;-60
2020/12/20 08:29:16;;;;;;;0.70;0.70;;;20.30;50.70;;;;;;5073430;28;20727;-60
2020/12/20 08:31:42;;;;;;;0.70;0.70;;;20.30;50.70;;;;;;5084606;28;20040;-60
2020/12/20 08:34:19;;;;;;;1.38;0.90;;;20.30;51.20;;;;;;5087385;28;20039;-60
2020/12/20 08:36:54;;;;;;;0.88;0.70;;;20.30;50.70;;;;;;5085321;28;20107;-60
2020/12/20 08:39:24;;;;;;;0.90;0.77;;;20.30;50.70;;;;;;5087823;28;20028;-59
2020/12/20 08:42:00;;;;;;;0.80;0.70;;;20.30;50.70;;;;;;5085517;28;20101;-60
2020/12/20 08:44:26;;;;;;;0.93;0.77;;;20.30;50.70;;;;;;5087189;28;20032;-60
2020/12/20 08:46:52;;;;;;;1.63;0.90;;;20.30;50.70;;;;;;5082599;28;20020;-59
2020/12/20 08:49:20;;;;;;;1.20;0.90;;;20.30;50.80;;;;;;5088029;28;20032;-58
2020/12/20 08:51:48;;;;;;;1.10;0.90;;;20.30;50.80;;;;;;5068707;28;20036;-60
2020/12/20 08:54:27;;;;;;;2.22;1.00;;;20.30;50.90;;;;;;5074663;28;20034;-60
2020/12/20 08:57:23;;;;;;;1.98;1.00;;;20.30;50.90;;;;;;5078792;28;20035;-59
2020/12/20 08:59:48;;;;;;;1.88;0.90;;;20.30;50.90;;;;;;5084015;28;20040;-59
2020/12/20 09:02:25;;;;;;;1.55;1.00;;;20.30;50.90;;;;;;5081689;28;20458;-59
2020/12/20 09:05:20;;;;;;;1.42;0.90;;;20.30;50.80;;;;;;5085862;28;20071;-61
2020/12/20 09:07:49;;;;;;;1.33;1.10;;;20.30;50.90;;;;;;5082042;28;20541;-59
2020/12/20 09:10:20;;;;;;;1.27;0.90;;;20.30;50.90;;;;;;5064479;28;20048;-59
2020/12/20 09:12:53;;;;;;;1.50;0.90;;;20.30;50.90;;;;;;5070601;28;20020;-60
2020/12/20 09:15:23;;;;;;;2.00;1.00;;;20.30;50.90;;;;;;5072925;28;20039;-60
2020/12/20 09:17:50;;;;;;;0.93;0.80;;;20.30;51.00;;;;;;5072823;28;20105;-59
2020/12/20 09:20:23;;;;;;;2.45;1.02;;;20.30;51.00;;;;;;5086660;28;20543;-61
2020/12/20 09:22:51;;;;;;;1.40;1.00;;;20.30;51.00;;;;;;5081352;28;20043;-61
2020/12/20 09:25:30;;;;;;;1.38;1.00;;;20.30;51.00;;;;;;5083717;28;20132;-58
2020/12/20 09:27:59;;;;;;;2.05;1.10;;;20.30;51.00;;;;;;5079805;28;20489;-61
2020/12/20 09:30:42;;;;;;;2.03;1.00;;;20.30;51.10;;;;;;5081138;28;20377;-60
2020/12/20 09:33:21;;;;;;;1.75;1.00;;;20.30;51.10;;;;;;5070134;28;20078;-61
2020/12/20 09:36:31;;;;;;;2.47;1.00;;;20.30;51.60;;;;;;5082163;28;20052;-60
2020/12/20 09:39:02;;;;;;;1.73;1.00;;;20.30;51.10;;;;;;5063761;28;20102;-60
2020/12/20 09:41:30;;;;;;;1.98;1.10;;;20.30;51.10;;;;;;5084144;28;20066;-60
2020/12/20 09:43:56;;;;;;;1.98;1.00;;;20.30;51.10;;;;;;5084498;28;20677;-61
2020/12/20 09:46:31;;;;;;;1.83;1.00;;;20.30;51.10;;;;;;5062091;28;20477;-61
2020/12/20 09:48:58;;;;;;;1.65;1.00;;;20.30;51.10;;;;;;5086112;28;20094;-61
2020/12/20 09:51:24;;;;;;;1.73;1.10;;;20.30;51.10;;;;;;5086063;28;20021;-61
2020/12/20 09:53:51;;;;;;;2.03;1.08;;;20.30;51.10;;;;;;5087886;28;20524;-60
2020/12/20 09:56:18;;;;;;;1.88;1.02;;;20.30;51.20;;;;;;5083558;28;20028;-62
2020/12/20 09:58:44;;;;;;;1.60;0.93;;;20.20;51.10;;;;;;5085021;28;20043;-60
2020/12/20 10:01:21;;;;;;;2.20;0.90;;;20.30;51.20;;;;;;5084110;28;20120;-60
2020/12/20 10:03:47;;;;;;;1.98;1.10;;;20.20;51.20;;;;;;5086323;28;20084;-61
2020/12/20 10:06:17;;;;;;;2.20;1.00;;;20.30;51.20;;;;;;5087510;28;20107;-60
2020/12/20 10:08:42;;;;;;;;;;;20.20;51.20;;;;;;5084713;28;20120;-61
2020/12/20 10:11:15;;;;;;;1.58;0.93;;;20.20;51.20;;;;;;5069428;28;21722;-61
2020/12/20 10:13:41;;;;;;;2.50;1.20;;;20.30;51.20;;;;;;5087631;28;20120;-59
2020/12/20 10:16:06;;;;;;;3.85;1.40;;;20.20;51.20;;;;;;5082507;28;20107;-62
2020/12/20 10:18:32;;;;;;;3.80;1.80;;;20.20;51.20;;;;;;5082290;28;20028;-61
2020/12/20 10:20:57;;;;;;;4.78;2.10;;;20.20;51.30;;;;;;5082778;28;20530;-60
2020/12/20 10:23:23;;;;;;;4.47;2.30;;;20.20;51.30;;;;;;5087235;28;20028;-60
2020/12/20 10:25:48;;;;;;;4.40;2.45;;;20.20;51.30;;;;;;5077179;28;20032;-61
2020/12/20 10:28:14;;;;;;;6.82;2.95;;;20.20;51.30;;;;;;5082631;28;20486;-61
2020/12/20 10:30:40;;;;;;;5.07;2.60;;;20.20;51.30;;;;;;5087645;28;20028;-61
2020/12/20 10:33:05;;;;;;;5.70;2.92;;;20.20;51.30;;;;;;5084765;28;20035;-60
2020/12/20 10:35:31;;;;;;;4.65;2.80;;;20.20;51.40;;;;;;5088001;28;20027;-61
2020/12/20 10:37:57;;;;;;;6.60;3.05;;;20.20;51.40;;;;;;5087284;28;20115;-60
2020/12/20 10:40:24;;;;;;;6.40;3.17;;;20.20;51.40;;;;;;5085816;28;20423;-59
2020/12/20 10:42:49;;;;;;;6.30;3.33;;;20.20;51.50;;;;;;5086834;28;20032;-59
2020/12/20 10:45:16;;;;;;;4.97;2.97;;;20.20;51.50;;;;;;5080831;28;20035;-60
2020/12/20 10:47:43;;;;;;;6.70;3.47;;;20.20;51.50;;;;;;5086744;28;20016;-59
2020/12/20 10:50:09;;;;;;;6.65;3.20;;;20.20;51.50;;;;;;5087139;28;20039;-61
2020/12/20 10:52:35;;;;;;;5.43;3.13;;;20.20;51.50;;;;;;5085406;28;20131;-60
2020/12/20 10:55:02;;;;;;;7.10;3.05;;;20.20;51.60;;;;;;5082434;28;20095;-61
2020/12/20 10:57:27;;;;;;;8.00;3.33;;;20.20;51.60;;;;;;5079874;28;20035;-61
2020/12/20 10:59:53;;;;;;;6.88;3.38;;;20.20;51.60;;;;;;5083010;28;20040;-61
2020/12/20 11:02:20;;;;;;;7.97;3.80;;;20.20;51.70;;;;;;5080651;28;20032;-61
2020/12/20 11:04:46;;;;;;;5.95;3.20;;;20.20;51.60;;;;;;5082178;28;20592;-61
2020/12/20 11:07:12;;;;;;;7.43;3.22;;;20.20;51.70;;;;;;5084676;28;20031;-60
2020/12/20 11:09:38;;;;;;;6.93;3.60;;;20.20;51.80;;;;;;5086751;28;20024;-60
2020/12/20 11:12:05;;;;;;;6.57;3.40;;;20.20;52.30;;;;;;5084404;28;20059;-60
2020/12/20 11:14:32;;;;;;;6.35;3.28;;;20.20;51.80;;;;;;5071040;28;20032;-61
2020/12/20 11:16:59;;;;;;;5.63;3.30;;;20.20;51.80;;;;;;5080840;28;20190;-59
2020/12/20 11:19:25;;;;;;;6.25;3.30;;;20.20;51.90;;;;;;5083618;28;20028;-61
2020/12/20 11:21:52;;;;;;;5.93;3.33;;;20.20;51.90;;;;;;5086614;28;20085;-60
2020/12/20 11:24:18;;;;;;;8.30;3.53;;;20.20;52.40;;;;;;5086997;28;20032;-61
2020/12/20 11:26:44;;;;;;;6.22;3.45;;;20.20;51.90;;;;;;5082729;28;20166;-60
2020/12/20 11:29:11;;;;;;;6.65;3.42;;;20.20;52.00;;;;;;5085571;28;20024;-59
2020/12/20 11:31:37;;;;;;;7.50;3.30;;;20.20;52.00;;;;;;5080004;28;20458;-61
2020/12/20 11:34:03;;;;;;;6.50;3.40;;;20.20;52.00;;;;;;5085080;28;20043;-61
2020/12/20 11:36:28;;;;;;;6.45;4.00;;;20.20;52.10;;;;;;5084691;28;21291;-61
2020/12/20 11:38:54;;;;;;;6.70;3.40;;;20.20;52.10;;;;;;5085035;28;20127;-60
2020/12/20 11:41:22;;;;;;;5.90;3.13;;;20.20;52.20;;;;;;5083535;28;20354;-60
2020/12/20 11:43:48;;;;;;;5.47;3.00;;;20.20;52.30;;;;;;5086528;28;20852;-60
2020/12/20 11:46:14;;;;;;;7.15;3.42;;;20.20;52.20;;;;;;5078397;28;20103;-62
2020/12/20 11:48:39;;;;;;;7.13;3.17;;;20.20;52.30;;;;;;5083021;28;20111;-61
2020/12/20 11:51:08;;;;;;;6.45;3.03;;;20.20;52.40;;;;;;5063017;28;20364;-60
2020/12/20 11:53:34;;;;;;;5.25;3.25;;;20.20;52.40;;;;;;5084200;28;22965;-61
2020/12/20 11:55:59;;;;;;;7.30;3.50;;;20.20;52.40;;;;;;5068204;28;20116;-61
2020/12/20 11:58:25;;;;;;;8.20;3.33;;;20.20;52.50;;;;;;5086784;28;20028;-61
2020/12/20 12:00:51;;;;;;;8.15;3.40;;;20.20;52.50;;;;;;5082241;28;20771;-61
2020/12/20 12:03:20;;;;;;;6.00;3.15;;;20.20;52.50;;;;;;5083289;28;20042;-59
2020/12/20 12:05:45;;;;;;;6.03;3.28;;;20.20;52.60;;;;;;5077656;28;20084;-61
2020/12/20 12:08:11;;;;;;;9.60;3.72;;;20.20;52.60;;;;;;5085338;28;20024;-60
2020/12/20 12:10:46;;;;;;;6.47;3.45;;;20.20;52.70;;;;;;5081376;28;20024;-60
2020/12/20 12:13:12;;;;;;;7.13;3.33;;;20.20;52.80;;;;;;5084345;28;20050;-60
2020/12/20 12:15:38;;;;;;;6.05;3.50;;;20.20;52.90;;;;;;5078804;28;20028;-61
2020/12/20 12:18:04;;;;;;;5.40;3.10;;;20.20;52.90;;;;;;5087310;28;20028;-59
2020/12/20 12:20:30;;;;;;;4.95;2.90;;;20.20;52.90;;;;;;5086350;28;20929;-60
2020/12/20 12:22:56;;;;;;;8.18;3.47;;;20.20;53.00;;;;;;5087144;28;20051;-61
2020/12/20 12:25:22;;;;;;;4.93;2.90;;;20.20;53.10;;;;;;5083267;28;20036;-60
2020/12/20 12:27:47;;;;;;;6.32;3.10;;;20.20;53.70;;;;;;5063774;28;20874;-60
2020/12/20 12:30:13;;;;;;;6.07;3.13;;;20.20;53.20;;;;;;5083698;28;20428;-60
2020/12/20 12:32:39;;;;;;;4.95;2.83;;;20.20;53.30;;;;;;5083019;28;20032;-60
2020/12/20 12:35:06;;;;;;;4.70;3.10;;;20.20;53.40;;;;;;5077444;28;20112;-61
2020/12/20 12:37:32;;;;;;;8.25;3.47;;;20.20;53.40;;;;;;5080743;28;20167;-58
2020/12/20 12:39:57;;;;;;;7.50;3.88;;;20.20;53.50;;;;;;5075630;28;20542;-60
2020/12/20 12:42:23;;;;;;;8.48;4.63;;;20.20;53.50;;;;;;5076778;28;20028;-59
2020/12/20 12:44:49;;;;;;;12.13;5.63;;;20.20;53.60;;;;;;5079466;28;20499;-60
2020/12/20 12:47:15;;;;;;;11.98;6.68;;;20.20;53.70;;;;;;5079013;28;20120;-61
2020/12/20 12:49:41;;;;;;;11.70;7.10;;;20.20;53.80;;;;;;5071478;28;20054;-59
2020/12/20 12:52:07;;;;;;;15.88;7.95;;;20.20;54.10;;;;;;5080420;28;20506;-59